Time;durP1;ratioP1;P1;durP2;ratioP2;P2;SDS_P1;SDS_P2;PMS_P1;PMS_P2;Temp;Humidity;BMP_temperature;BMP_pressure;BME280_temperature;BME280_humidity;BME280_pressure;Samples;Min_cycle;Max_cycle;Signal;HPM_P1;HPM_P2
2022/01/13 00:02:05;;;;;;;29.50;11.50;;;;;;;1.39;87.72;102168.28;52041;1284;1016604;-59
2022/01/13 00:04:38;;;;;;;29.40;9.30;;;;;;;1.39;87.61;102168.52;52145;1284;1016623;-58
2022/01/13 00:07:10;;;;;;;27.90;7.30;;;;;;;1.39;87.69;102167.27;52186;1284;1016555;-59
2022/01/13 00:09:43;;;;;;;28.70;9.70;;;;;;;1.40;87.57;102170.02;52109;1284;1016616;-59
2022/01/13 00:12:17;;;;;;;26.90;7.40;;;;;;;1.41;87.64;102174.67;52202;1284;1016544;-60
2022/01/13 00:15:07;;;;;;;26.50;8.20;;;;;;;1.41;87.64;102178.92;52209;1279;1020879;-60
2022/01/13 00:17:57;;;;;;;26.80;7.70;;;;;;;1.42;87.64;102180.45;52408;1279;1017567;-59
2022/01/13 00:26:08;;;;;;;28.00;7.50;;;;;;;1.45;87.71;102193.46;52326;1277;1016324;-58
2022/01/13 00:28:43;;;;;;;23.60;6.60;;;;;;;1.46;87.57;102195.27;52423;1278;1016413;-59
2022/01/13 00:31:19;;;;;;;23.90;7.60;;;;;;;1.47;87.63;102192.70;52415;1277;1020071;-58
2022/01/13 00:33:54;;;;;;;22.40;6.30;;;;;;;1.48;87.72;102197.69;52459;1278;1016759;-58
2022/01/13 00:36:27;;;;;;;24.90;8.80;;;;;;;1.49;87.75;102209.02;52314;1277;1019636;-58
2022/01/13 00:39:00;;;;;;;24.10;7.40;;;;;;;1.51;87.66;102206.76;52501;1277;1018768;-59
2022/01/13 00:41:31;;;;;;;30.70;10.30;;;;;;;1.51;87.67;102204.64;52311;1277;1016725;-58
2022/01/13 00:44:06;;;;;;;22.80;7.40;;;;;;;1.52;87.56;102206.61;52402;1277;1016070;-59
2022/01/13 00:46:43;;;;;;;29.20;9.90;;;;;;;1.53;87.58;102210.41;52464;1277;1016408;-59
2022/01/13 00:49:15;;;;;;;26.50;8.70;;;;;;;1.54;87.54;102215.08;52463;1278;1016245;-59
2022/01/13 00:51:47;;;;;;;26.30;9.40;;;;;;;1.56;87.52;102208.16;52450;1278;1016728;-59
2022/01/13 00:54:18;;;;;;;27.10;9.00;;;;;;;1.56;87.72;102215.49;52462;1278;1016614;-59
2022/01/13 00:56:50;;;;;;;24.30;7.30;;;;;;;1.57;87.53;102222.20;52328;1277;1016644;-59
2022/01/13 00:59:21;;;;;;;23.50;8.00;;;;;;;1.58;87.64;102229.67;52417;1277;1016230;-59
2022/01/13 01:01:54;;;;;;;26.80;7.90;;;;;;;1.59;87.52;102237.79;52449;1273;1019731;-59
2022/01/13 01:04:25;;;;;;;24.20;7.40;;;;;;;1.59;87.48;102236.23;52543;1273;1016007;-59
2022/01/13 01:06:57;;;;;;;28.00;8.10;;;;;;;1.60;87.66;102237.82;52533;1273;1016473;-59
2022/01/13 01:09:38;;;;;;;24.70;6.90;;;;;;;1.62;87.53;102238.84;52611;1273;1016395;-57
2022/01/13 01:12:11;;;;;;;19.60;4.90;;;;;;;1.61;87.52;102232.40;52502;1273;1016779;-59
2022/01/13 01:14:47;;;;;;;20.10;5.00;;;;;;;1.61;87.68;102206.67;52629;1273;1016275;-60
2022/01/13 01:17:18;;;;;;;20.60;6.00;;;;;;;1.61;87.60;102180.17;52498;1273;1019472;-59
2022/01/13 01:19:51;;;;;;;21.50;7.20;;;;;;;1.60;87.46;102173.25;52494;1273;1018884;-59
2022/01/13 01:22:42;;;;;;;25.50;7.50;;;;;;;1.61;87.53;102172.77;52542;1272;1016017;-59
2022/01/13 01:25:38;;;;;;;;;;;;;;;1.60;87.50;102172.21;52596;1273;1018420;-59
2022/01/13 01:28:16;;;;;;;21.80;7.00;;;;;;;1.61;87.50;102167.51;52567;1273;1016256;-59
2022/01/13 01:30:50;;;;;;;32.30;11.00;;;;;;;1.61;87.50;102158.62;52564;1273;1016188;-59
2022/01/13 01:33:22;;;;;;;28.70;9.90;;;;;;;1.61;87.51;102158.46;52598;1273;1016573;-59
2022/01/13 01:35:56;;;;;;;30.30;11.00;;;;;;;1.61;87.47;102153.42;52597;1273;1016193;-59
2022/01/13 01:38:27;;;;;;;33.50;11.10;;;;;;;1.62;87.43;102148.33;52566;1273;1016480;-59
2022/01/13 01:40:58;;;;;;;29.00;10.60;;;;;;;1.62;87.36;102145.25;52464;1273;1016673;-59
2022/01/13 01:43:29;;;;;;;26.00;7.20;;;;;;;1.62;87.20;102137.48;52578;1273;1015843;-59
2022/01/13 01:46:01;;;;;;;26.60;7.50;;;;;;;1.63;87.27;102135.60;52536;1273;1016465;-59
2022/01/13 01:48:35;;;;;;;25.90;9.60;;;;;;;1.63;87.18;102140.39;52596;1273;1016296;-59
2022/01/13 01:51:07;;;;;;;24.50;8.90;;;;;;;1.64;87.17;102137.96;52524;1273;1017295;-59
2022/01/13 01:53:38;;;;;;;27.10;11.10;;;;;;;1.64;87.23;102142.53;52544;1273;1016016;-59
2022/01/13 01:56:10;;;;;;;29.70;11.10;;;;;;;1.64;87.22;102145.21;52548;1273;1016177;-59
2022/01/13 01:58:41;;;;;;;32.50;11.20;;;;;;;1.64;87.27;102150.08;52455;1273;1016352;-59
2022/01/13 02:01:13;;;;;;;30.80;11.10;;;;;;;1.66;87.34;102165.84;52600;1273;1016082;-59
2022/01/13 02:03:45;;;;;;;31.90;12.60;;;;;;;1.67;87.43;102155.31;52568;1273;1016148;-59
2022/01/13 02:06:20;;;;;;;34.20;12.50;;;;;;;1.67;87.36;102141.32;52599;1273;1016470;-59
2022/01/13 02:08:51;;;;;;;29.60;10.10;;;;;;;1.68;87.39;102133.94;52494;1273;1016365;-59
2022/01/13 02:11:23;;;;;;;39.10;13.60;;;;;;;1.67;87.43;102131.89;52568;1273;1016640;-59
2022/01/13 02:13:59;;;;;;;28.00;10.90;;;;;;;1.67;87.29;102140.77;52580;1273;1016363;-59
2022/01/13 02:16:43;;;;;;;31.10;11.90;;;;;;;1.66;87.35;102141.55;52542;1273;1017979;-59
2022/01/13 02:19:16;;;;;;;30.30;11.60;;;;;;;1.66;87.39;102151.91;52581;1273;1016602;-60
2022/01/13 02:21:47;;;;;;;28.10;8.90;;;;;;;1.66;87.43;102159.08;52589;1273;1015659;-60
2022/01/13 02:24:18;;;;;;;36.80;14.70;;;;;;;1.67;87.23;102148.71;52666;1273;1016341;-60
2022/01/13 02:26:49;;;;;;;34.10;12.30;;;;;;;1.67;87.25;102149.41;52511;1273;1017119;-59
2022/01/13 02:29:20;;;;;;;30.20;11.20;;;;;;;1.66;87.27;102152.63;52557;1273;1016255;-60
2022/01/13 02:31:52;;;;;;;33.80;11.70;;;;;;;1.66;87.26;102149.64;52505;1273;1016448;-60
2022/01/13 02:34:24;;;;;;;33.50;11.20;;;;;;;1.67;87.25;102151.63;52558;1273;1016566;-60
2022/01/13 02:36:58;;;;;;;35.80;12.50;;;;;;;1.66;87.22;102148.00;52579;1273;1016518;-60
2022/01/13 02:39:29;;;;;;;35.20;12.80;;;;;;;1.66;87.18;102145.23;52686;1273;1016430;-58
2022/01/13 02:42:03;;;;;;;34.60;12.70;;;;;;;1.66;87.20;102143.89;52647;1273;1016695;-59
2022/01/13 02:44:38;;;;;;;29.10;10.70;;;;;;;1.66;87.18;102146.64;52630;1273;1016225;-60
2022/01/13 02:47:20;;;;;;;34.70;13.50;;;;;;;1.65;87.12;102142.00;52586;1272;1016622;-60
2022/01/13 02:49:51;;;;;;;41.60;15.20;;;;;;;1.65;87.12;102146.81;52571;1273;1016439;-60
2022/01/13 02:52:23;;;;;;;34.70;13.30;;;;;;;1.65;87.17;102147.66;52572;1273;1016728;-60
2022/01/13 02:54:54;;;;;;;41.10;16.30;;;;;;;1.65;87.20;102147.51;52547;1273;1016362;-63
2022/01/13 02:57:25;;;;;;;39.70;13.50;;;;;;;1.66;87.23;102142.40;52605;1273;1016500;-59
2022/01/13 02:59:56;;;;;;;38.80;15.80;;;;;;;1.65;87.16;102140.52;52591;1273;1016622;-59
2022/01/13 03:02:31;;;;;;;41.50;16.60;;;;;;;1.64;87.18;102144.42;52687;1273;1016332;-60
2022/01/13 03:05:02;;;;;;;38.50;15.00;;;;;;;1.64;87.13;102145.05;52784;1273;1016490;-59
2022/01/13 03:07:34;;;;;;;41.10;15.70;;;;;;;1.63;87.08;102151.81;52782;1273;1016878;-60
2022/01/13 03:10:07;;;;;;;41.50;16.30;;;;;;;1.62;86.82;102154.94;52624;1273;1020027;-59
2022/01/13 03:12:41;;;;;;;49.80;15.70;;;;;;;1.60;86.66;102149.16;52581;1273;1016136;-59
2022/01/13 03:15:12;;;;;;;40.10;15.20;;;;;;;1.59;86.68;102156.23;52526;1273;1016313;-60
2022/01/13 03:17:43;;;;;;;33.50;13.50;;;;;;;1.58;86.60;102164.23;52632;1273;1016069;-59
2022/01/13 03:20:15;;;;;;;36.90;14.00;;;;;;;1.56;86.47;102158.63;52557;1273;1016648;-59
2022/01/13 03:22:47;;;;;;;38.50;13.50;;;;;;;1.54;86.47;102151.84;52552;1273;1016203;-59
2022/01/13 03:25:22;;;;;;;39.30;15.10;;;;;;;1.53;86.46;102146.79;52594;1273;1016731;-59
2022/01/13 03:27:57;;;;;;;39.60;16.30;;;;;;;1.53;86.44;102141.35;52539;1273;1016420;-60
2022/01/13 03:30:28;;;;;;;46.00;18.00;;;;;;;1.53;86.32;102133.19;52595;1273;1016348;-59
2022/01/13 03:33:00;;;;;;;48.20;18.80;;;;;;;1.51;86.11;102131.27;52707;1273;1016340;-59
2022/01/13 03:35:32;;;;;;;38.00;14.60;;;;;;;1.50;85.94;102139.05;52525;1273;1016443;-59
2022/01/13 03:38:03;;;;;;;41.60;15.90;;;;;;;1.49;85.71;102142.81;52535;1273;1016368;-59
2022/01/13 03:40:35;;;;;;;38.30;14.30;;;;;;;1.47;85.46;102137.90;52587;1273;1016696;-59
2022/01/13 03:43:07;;;;;;;35.90;15.00;;;;;;;1.46;85.39;102138.42;52597;1273;1016470;-59
2022/01/13 03:45:38;;;;;;;40.70;15.30;;;;;;;1.45;85.35;102133.61;52613;1273;1019901;-59
2022/01/13 03:48:09;;;;;;;34.80;13.50;;;;;;;1.45;85.23;102139.66;52543;1273;1016769;-59
2022/01/13 03:50:41;;;;;;;39.50;14.40;;;;;;;1.45;85.11;102133.84;52604;1273;1016455;-59
2022/01/13 03:54:21;;;;;;;33.40;12.90;;;;;;;1.44;85.12;102125.41;52619;1273;1018044;-59
2022/01/13 03:57:50;;;;;;;34.10;12.40;;;;;;;1.44;85.01;102122.35;52524;1273;1016094;-59
2022/01/13 04:01:08;;;;;;;40.70;14.10;;;;;;;1.42;84.73;102124.30;52547;1273;1016228;-59
2022/01/13 04:03:39;;;;;;;46.40;16.40;;;;;;;1.43;84.86;102124.15;52639;1273;1016305;-59
2022/01/13 04:06:42;;;;;;;38.60;13.80;;;;;;;1.44;84.92;102125.11;52505;1273;1016590;-60
2022/01/13 04:09:37;;;;;;;37.70;13.90;;;;;;;1.45;84.62;102124.56;52581;1273;1016237;-59
2022/01/13 04:12:11;;;;;;;40.60;14.90;;;;;;;1.45;84.71;102115.85;52504;1273;1016500;-60
2022/01/13 04:14:47;;;;;;;36.60;12.70;;;;;;;1.46;84.66;102121.68;52506;1273;1016545;-61
2022/01/13 04:17:20;;;;;;;33.30;11.80;;;;;;;1.47;84.51;102122.55;52492;1273;1016542;-60
2022/01/13 04:19:52;;;;;;;37.40;13.80;;;;;;;1.48;84.60;102113.45;52572;1273;1016230;-59
2022/01/13 04:22:25;;;;;;;41.40;13.80;;;;;;;1.49;84.49;102112.61;52567;1273;1016174;-59
2022/01/13 04:24:56;;;;;;;37.50;14.60;;;;;;;1.50;84.42;102117.81;52473;1273;1016696;-59
2022/01/13 04:27:32;;;;;;;42.80;15.50;;;;;;;1.50;84.28;102114.44;52574;1273;1016091;-59
2022/01/13 04:30:23;;;;;;;39.30;12.40;;;;;;;1.51;84.09;102110.52;52635;1273;1020199;-59
2022/01/13 04:32:54;;;;;;;36.50;14.20;;;;;;;1.51;84.06;102106.97;52493;1273;1019027;-59
2022/01/13 04:35:25;;;;;;;39.50;12.80;;;;;;;1.52;84.11;102106.91;52602;1273;1016314;-59
2022/01/13 04:37:56;;;;;;;38.00;13.40;;;;;;;1.52;84.13;102106.83;52491;1273;1016233;-59
2022/01/13 04:40:28;;;;;;;36.30;12.90;;;;;;;1.53;84.14;102109.52;52666;1273;1016276;-59
2022/01/13 04:42:58;;;;;;;32.70;12.40;;;;;;;1.54;84.09;102106.13;52599;1273;1018115;-59
2022/01/13 04:45:29;;;;;;;35.90;13.30;;;;;;;1.54;83.96;102100.55;52589;1273;1018840;-58
2022/01/13 04:48:00;;;;;;;41.10;13.70;;;;;;;1.54;84.08;102092.70;52521;1273;1020744;-59
2022/01/13 04:50:31;;;;;;;38.90;14.40;;;;;;;1.55;84.16;102082.17;52686;1273;1016731;-61
2022/01/13 04:53:02;;;;;;;36.70;13.40;;;;;;;1.55;84.13;102079.42;52871;1273;1016569;-59
2022/01/13 04:55:36;;;;;;;39.90;13.40;;;;;;;1.56;84.19;102071.66;52907;1273;1017306;-59
2022/01/13 04:58:08;;;;;;;36.00;12.50;;;;;;;1.58;84.16;102066.33;52788;1273;1016181;-59
2022/01/13 05:00:38;;;;;;;32.30;11.70;;;;;;;1.59;84.20;102065.30;52789;1273;1016583;-58
2022/01/13 05:03:10;;;;;;;35.00;12.20;;;;;;;1.61;84.07;102059.05;52856;1273;1016598;-60
2022/01/13 05:05:41;;;;;;;36.90;13.50;;;;;;;1.62;84.11;102060.23;53063;1273;1016706;-60
2022/01/13 05:08:12;;;;;;;31.20;10.70;;;;;;;1.63;84.02;102054.66;52865;1273;1016368;-66
2022/01/13 05:10:43;;;;;;;34.20;12.50;;;;;;;1.63;83.90;102051.20;52728;1273;1016230;-60
2022/01/13 05:13:14;;;;;;;37.20;13.50;;;;;;;1.64;83.97;102054.36;52889;1273;1016299;-60
2022/01/13 05:15:46;;;;;;;34.90;11.10;;;;;;;1.64;84.08;102055.55;52831;1273;1019499;-60
2022/01/13 05:18:24;;;;;;;34.50;12.40;;;;;;;1.64;83.96;102058.60;52910;1273;1017849;-59
2022/01/13 05:21:01;;;;;;;31.00;10.00;;;;;;;1.64;84.05;102064.76;52973;1273;1016628;-61
2022/01/13 05:23:34;;;;;;;34.00;12.60;;;;;;;1.66;84.10;102065.31;52844;1273;1015913;-61
2022/01/13 05:26:06;;;;;;;33.80;13.90;;;;;;;1.68;84.08;102068.26;52896;1273;1016298;-61
2022/01/13 05:28:38;;;;;;;32.00;10.50;;;;;;;1.68;84.02;102064.55;52852;1273;1015799;-61
2022/01/13 05:31:10;;;;;;;30.00;10.00;;;;;;;1.69;83.99;102064.81;52820;1273;1016024;-59
2022/01/13 05:33:42;;;;;;;31.00;12.20;;;;;;;1.69;83.93;102058.13;52910;1273;1016425;-60
2022/01/13 05:36:13;;;;;;;30.10;11.30;;;;;;;1.70;84.10;102054.20;52925;1273;1016100;-61
2022/01/13 05:38:44;;;;;;;28.50;10.10;;;;;;;1.71;84.07;102047.46;53005;1273;1016781;-62
2022/01/13 05:41:16;;;;;;;28.60;9.90;;;;;;;1.72;84.05;102043.38;53431;1273;1016219;-61
2022/01/13 05:43:47;;;;;;;31.80;11.10;;;;;;;1.74;83.95;102040.33;53083;1273;1016007;-61
2022/01/13 05:46:18;;;;;;;30.00;9.00;;;;;;;1.74;83.97;102036.55;52949;1273;1017149;-60
2022/01/13 05:48:49;;;;;;;28.70;9.60;;;;;;;1.74;83.96;102031.59;52900;1273;1016250;-60
2022/01/13 05:51:21;;;;;;;31.40;8.90;;;;;;;1.75;83.95;102029.01;52921;1273;1017024;-61
2022/01/13 05:53:53;;;;;;;24.30;8.60;;;;;;;1.74;83.77;102027.58;53041;1273;1015972;-61
2022/01/13 05:56:24;;;;;;;26.10;8.30;;;;;;;1.74;84.01;102032.08;52920;1273;1015964;-60
2022/01/13 05:58:56;;;;;;;29.60;10.10;;;;;;;1.75;83.92;102044.67;52933;1273;1019053;-61
2022/01/13 06:01:27;;;;;;;27.70;10.80;;;;;;;1.75;83.93;102042.63;52950;1273;1016292;-60
2022/01/13 06:03:58;;;;;;;28.20;9.70;;;;;;;1.77;83.95;102038.07;52934;1273;1016396;-60
2022/01/13 06:06:29;;;;;;;31.50;10.40;;;;;;;1.78;83.87;102036.20;52923;1273;1016626;-61
2022/01/13 06:09:00;;;;;;;32.00;10.90;;;;;;;1.78;83.95;102042.65;52972;1273;1015883;-61
2022/01/13 06:11:38;;;;;;;28.40;9.70;;;;;;;1.79;83.93;102048.95;53080;1273;1016358;-60
2022/01/13 06:14:09;;;;;;;26.80;9.70;;;;;;;1.80;83.94;102045.02;52941;1273;1015805;-63
2022/01/13 06:16:40;;;;;;;30.30;10.30;;;;;;;1.81;83.96;102035.76;53480;1273;1016838;-60
2022/01/13 06:19:12;;;;;;;31.00;10.50;;;;;;;1.83;83.92;102036.73;53001;1273;1016522;-60
2022/01/13 06:21:43;;;;;;;34.40;12.20;;;;;;;1.83;83.84;102030.91;52917;1273;1016514;-61
2022/01/13 06:24:14;;;;;;;35.80;12.10;;;;;;;1.84;83.82;102020.70;53062;1273;1016209;-59
2022/01/13 06:26:45;;;;;;;30.90;11.40;;;;;;;1.85;83.81;102028.02;53012;1273;1016048;-59
2022/01/13 06:29:17;;;;;;;33.60;11.30;;;;;;;1.85;83.80;102028.33;52888;1273;1016506;-59
2022/01/13 06:31:48;;;;;;;31.60;11.20;;;;;;;1.85;83.77;102035.17;52930;1273;1016209;-60
2022/01/13 06:34:19;;;;;;;30.90;11.50;;;;;;;1.85;83.76;102036.13;52846;1273;1016611;-60
2022/01/13 06:36:51;;;;;;;31.10;12.10;;;;;;;1.84;83.70;102035.66;52846;1273;1019274;-64
2022/01/13 06:39:22;;;;;;;29.40;11.00;;;;;;;1.84;83.68;102034.30;52918;1273;1016497;-61
2022/01/13 06:41:53;;;;;;;33.80;12.70;;;;;;;1.84;83.55;102030.30;52830;1273;1016083;-59
2022/01/13 06:44:24;;;;;;;30.50;11.20;;;;;;;1.83;83.54;102035.95;52909;1273;1016412;-61
2022/01/13 06:46:56;;;;;;;32.90;11.60;;;;;;;1.82;83.51;102039.64;53050;1273;1019933;-61
2022/01/13 06:49:27;;;;;;;29.00;11.40;;;;;;;1.81;83.44;102041.36;52863;1273;1016587;-59
2022/01/13 06:51:58;;;;;;;30.60;10.90;;;;;;;1.82;83.50;102046.02;52859;1273;1016282;-61
2022/01/13 06:54:31;;;;;;;35.00;13.00;;;;;;;1.83;83.47;102050.02;52948;1273;1015756;-60
2022/01/13 06:57:04;;;;;;;32.00;12.50;;;;;;;1.84;83.61;102058.38;52879;1273;1015785;-61
2022/01/13 06:59:34;;;;;;;35.50;11.60;;;;;;;1.85;83.58;102063.05;52883;1273;1016683;-61
2022/01/13 07:02:06;;;;;;;35.40;12.80;;;;;;;1.86;83.52;102071.00;52911;1273;1016690;-61
2022/01/13 07:04:37;;;;;;;30.70;12.70;;;;;;;1.87;83.50;102078.71;52948;1273;1016631;-60
2022/01/13 07:07:09;;;;;;;35.80;11.30;;;;;;;1.88;83.55;102076.22;52879;1273;1018991;-62
2022/01/13 07:09:40;;;;;;;36.40;12.90;;;;;;;1.89;83.60;102073.55;52979;1273;1016214;-62
2022/01/13 07:12:13;;;;;;;35.10;12.00;;;;;;;1.92;83.68;102081.13;52859;1273;1018369;-60
2022/01/13 07:14:44;;;;;;;33.60;12.70;;;;;;;1.94;83.76;102078.50;52919;1273;1016352;-61
2022/01/13 07:17:16;;;;;;;31.80;12.30;;;;;;;1.97;83.81;102069.71;52990;1273;1016302;-60
2022/01/13 07:19:51;;;;;;;27.70;10.60;;;;;;;2.00;83.98;102055.02;52937;1273;1016265;-62
2022/01/13 07:22:22;;;;;;;36.70;12.20;;;;;;;2.03;83.97;102058.05;52983;1273;1016504;-61
2022/01/13 07:24:54;;;;;;;34.80;12.70;;;;;;;2.07;84.03;102056.44;52964;1273;1016173;-62
2022/01/13 07:27:25;;;;;;;30.30;11.10;;;;;;;2.10;84.06;102039.95;52893;1273;1016641;-61
2022/01/13 07:29:56;;;;;;;40.60;12.80;;;;;;;2.13;84.10;102032.50;52820;1273;1016266;-60
2022/01/13 07:32:28;;;;;;;45.90;15.00;;;;;;;2.17;84.14;102018.29;52940;1273;1016117;-62
2022/01/13 07:35:00;;;;;;;34.70;11.30;;;;;;;2.20;84.15;102015.48;52958;1273;1016410;-60
2022/01/13 07:37:31;;;;;;;35.10;12.40;;;;;;;2.24;84.14;102012.52;52951;1273;1016647;-61
2022/01/13 07:40:03;;;;;;;28.50;9.10;;;;;;;2.27;84.10;102011.06;52865;1273;1016703;-60
2022/01/13 07:42:36;;;;;;;32.50;10.50;;;;;;;2.31;84.15;102010.00;52905;1273;1016440;-60
2022/01/13 07:45:09;;;;;;;29.90;9.70;;;;;;;2.35;84.04;102021.59;52902;1273;1016496;-62
2022/01/13 07:47:43;;;;;;;24.60;8.30;;;;;;;2.39;84.07;102025.66;52892;1273;1018121;-58
2022/01/13 07:50:15;;;;;;;27.50;8.50;;;;;;;2.43;83.98;102021.29;52853;1273;1016627;-61
2022/01/13 07:52:47;;;;;;;26.90;9.70;;;;;;;2.46;84.02;102005.48;52866;1273;1016216;-57
2022/01/13 07:55:19;;;;;;;28.70;10.20;;;;;;;2.50;83.96;102001.02;52934;1273;1016172;-59
2022/01/13 07:57:50;;;;;;;29.50;9.40;;;;;;;2.53;83.91;102007.66;52956;1273;1016578;-59
2022/01/13 08:00:21;;;;;;;24.00;7.80;;;;;;;2.58;83.94;102006.84;52921;1273;1016100;-59
2022/01/13 08:02:52;;;;;;;28.80;8.90;;;;;;;2.61;83.84;101995.98;52905;1274;1016363;-61
2022/01/13 08:05:23;;;;;;;24.60;6.70;;;;;;;2.65;83.81;101974.27;52938;1273;1016315;-60
2022/01/13 08:07:55;;;;;;;33.80;10.10;;;;;;;2.67;83.70;101952.23;52902;1273;1018963;-61
2022/01/13 08:10:27;;;;;;;26.50;8.70;;;;;;;2.71;83.73;101944.45;52876;1273;1016458;-59
2022/01/13 08:12:58;;;;;;;26.90;7.90;;;;;;;2.74;83.76;101939.42;52907;1273;1016453;-59
2022/01/13 08:15:30;;;;;;;32.60;7.40;;;;;;;2.77;83.74;101949.62;52933;1273;1016971;-60
2022/01/13 08:20:50;;;;;;;26.30;7.80;;;;;;;2.85;83.67;101946.83;52764;1273;1016393;-60
2022/01/13 08:23:21;;;;;;;25.40;6.60;;;;;;;2.89;83.63;101955.12;52762;1273;1016234;-58
2022/01/13 08:25:52;;;;;;;24.20;7.40;;;;;;;2.92;83.63;101958.13;52922;1273;1016690;-59
2022/01/13 08:28:24;;;;;;;22.10;5.10;;;;;;;2.96;83.58;101949.65;52912;1273;1016699;-60
2022/01/13 08:30:55;;;;;;;22.30;6.20;;;;;;;2.99;83.60;101944.70;52803;1273;1016490;-59
2022/01/13 08:33:27;;;;;;;21.20;6.70;;;;;;;3.02;83.60;101932.96;52918;1273;1016676;-60
2022/01/13 08:35:59;;;;;;;22.70;5.70;;;;;;;3.05;83.61;101935.18;52886;1273;1018735;-61
2022/01/13 08:38:30;;;;;;;23.90;5.20;;;;;;;3.09;83.68;101924.80;52927;1274;1015731;-60
2022/01/13 08:41:01;;;;;;;20.60;6.10;;;;;;;3.12;83.62;101924.10;52828;1274;1016652;-60
2022/01/13 08:43:34;;;;;;;18.40;5.10;;;;;;;3.15;83.58;101930.90;52930;1273;1016093;-59
2022/01/13 08:46:05;;;;;;;24.30;6.60;;;;;;;3.17;83.62;101945.73;52833;1273;1019737;-59
2022/01/13 08:48:37;;;;;;;22.80;5.90;;;;;;;3.19;83.61;101945.91;52871;1273;1016031;-60
2022/01/13 08:51:08;;;;;;;15.90;3.50;;;;;;;3.23;83.64;101955.14;52889;1274;1015770;-60
2022/01/13 08:53:40;;;;;;;18.00;5.60;;;;;;;3.25;83.61;101967.53;52785;1273;1016687;-59
2022/01/13 08:56:13;;;;;;;22.10;4.90;;;;;;;3.28;83.56;101967.31;52798;1273;1016080;-59
2022/01/13 08:58:46;;;;;;;19.10;6.40;;;;;;;3.31;83.59;101970.46;52864;1273;1017071;-60
2022/01/13 09:01:18;;;;;;;21.50;4.90;;;;;;;3.35;83.62;101980.19;52869;1274;1016226;-60
2022/01/13 09:03:49;;;;;;;24.80;5.80;;;;;;;3.39;83.57;101980.92;52910;1273;1016501;-58
2022/01/13 09:06:20;;;;;;;25.90;6.70;;;;;;;3.42;83.54;101981.95;52765;1275;1016558;-57
2022/01/13 09:08:52;;;;;;;28.60;6.00;;;;;;;3.44;83.52;101987.02;52987;1273;1016511;-59
2022/01/13 09:11:24;;;;;;;28.90;8.20;;;;;;;3.46;83.35;101980.00;52903;1274;1016237;-59
2022/01/13 09:13:57;;;;;;;21.30;6.70;;;;;;;3.47;83.37;101979.92;52915;1273;1016657;-58
2022/01/13 09:16:41;;;;;;;20.70;6.50;;;;;;;3.48;83.44;101973.93;52821;1273;1016656;-59
2022/01/13 09:19:14;;;;;;;21.00;5.70;;;;;;;3.49;83.48;101975.11;52852;1273;1016369;-58
2022/01/13 09:21:48;;;;;;;25.50;7.20;;;;;;;3.49;83.56;101971.03;52974;1273;1020417;-57
2022/01/13 09:24:21;;;;;;;20.60;5.40;;;;;;;3.50;83.65;101972.05;52704;1273;1016667;-59
2022/01/13 09:26:52;;;;;;;18.20;4.50;;;;;;;3.52;83.62;101975.38;52670;1273;1017664;-60
2022/01/13 09:29:24;;;;;;;21.80;6.50;;;;;;;3.54;83.62;101976.73;52889;1273;1018970;-60
2022/01/13 09:31:56;;;;;;;26.40;9.50;;;;;;;3.55;83.64;101971.20;52975;1273;1016257;-58
2022/01/13 09:34:27;;;;;;;21.20;5.80;;;;;;;3.56;83.70;101975.23;52878;1273;1016671;-59
2022/01/13 09:36:59;;;;;;;24.20;8.00;;;;;;;3.57;83.61;101973.90;52960;1272;1015919;-58
2022/01/13 09:39:34;;;;;;;24.10;6.80;;;;;;;3.57;83.60;101973.10;52911;1273;1016465;-59
2022/01/13 09:42:09;;;;;;;29.40;9.90;;;;;;;3.59;83.57;101980.36;52859;1273;1016919;-58
2022/01/13 09:44:41;;;;;;;24.40;7.70;;;;;;;3.58;83.53;101979.49;52903;1275;1016539;-59
2022/01/13 09:47:15;;;;;;;31.50;9.20;;;;;;;3.56;83.40;101975.77;52785;1273;1015853;-59
2022/01/13 09:49:46;;;;;;;22.80;7.60;;;;;;;3.53;83.45;101972.53;52933;1273;1016275;-59
2022/01/13 09:52:17;;;;;;;24.20;7.90;;;;;;;3.51;83.49;101976.40;52919;1273;1016644;-60
2022/01/13 09:54:49;;;;;;;26.00;7.90;;;;;;;3.47;83.52;101974.71;52899;1275;1018180;-58
2022/01/13 09:57:21;;;;;;;27.70;10.00;;;;;;;3.45;83.61;101974.31;52905;1273;1017792;-60
2022/01/13 09:59:54;;;;;;;27.20;9.30;;;;;;;3.43;83.66;101980.15;52906;1273;1016338;-60
2022/01/13 10:02:25;;;;;;;23.50;8.40;;;;;;;3.41;83.74;101983.45;52889;1273;1016540;-58
2022/01/13 10:04:57;;;;;;;34.90;10.20;;;;;;;3.39;83.76;101983.27;52953;1273;1016531;-58
2022/01/13 10:07:37;;;;;;;27.70;10.50;;;;;;;3.37;83.80;101977.20;52949;1273;1016834;-59
2022/01/13 10:10:14;;;;;;;24.40;10.20;;;;;;;3.34;83.87;101971.20;52956;1274;1016504;-59
2022/01/13 10:12:46;;;;;;;28.00;8.60;;;;;;;3.33;83.89;101964.96;52975;1273;1016271;-58
2022/01/13 10:18:09;;;;;;;35.70;11.00;;;;;;;3.28;84.06;101958.79;52946;1274;1016335;-60
2022/01/13 10:20:41;;;;;;;30.00;10.20;;;;;;;3.28;84.04;101955.32;53018;1274;1016141;-59
2022/01/13 10:23:13;;;;;;;29.50;10.50;;;;;;;3.28;84.16;101964.55;52914;1273;1016606;-58
2022/01/13 10:25:46;;;;;;;29.30;10.60;;;;;;;3.26;84.18;101954.45;52892;1273;1016433;-59
2022/01/13 10:28:20;;;;;;;29.20;10.20;;;;;;;3.26;84.22;101946.01;52895;1271;1016069;-58
2022/01/13 10:30:55;;;;;;;31.30;10.50;;;;;;;3.24;84.26;101943.94;52862;1274;1016421;-58
2022/01/13 10:33:28;;;;;;;25.70;8.30;;;;;;;3.24;84.32;101942.21;52907;1274;1019027;-57
2022/01/13 10:36:10;;;;;;;31.20;9.20;;;;;;;3.23;84.31;101937.47;52906;1273;1016279;-58
2022/01/13 10:38:54;;;;;;;23.90;8.80;;;;;;;3.23;84.35;101948.27;52992;1273;1016597;-59
2022/01/13 10:41:37;;;;;;;29.90;9.40;;;;;;;3.23;84.39;101943.39;53007;1273;1016911;-58
2022/01/13 10:44:16;;;;;;;30.10;10.70;;;;;;;3.24;84.32;101940.24;52831;1274;1016231;-60
2022/01/13 10:47:03;;;;;;;32.10;10.00;;;;;;;3.26;84.41;101937.80;52860;1274;1016559;-60
2022/01/13 10:49:37;;;;;;;30.30;11.30;;;;;;;3.28;84.47;101942.63;52882;1273;1018538;-59
2022/01/13 10:52:27;;;;;;;32.30;13.00;;;;;;;3.30;84.41;101943.35;52880;1274;1016366;-59
2022/01/13 10:55:07;;;;;;;28.60;11.00;;;;;;;3.31;84.46;101938.85;52894;1274;1016583;-67
2022/01/13 10:57:41;;;;;;;30.20;9.70;;;;;;;3.33;84.42;101938.30;52935;1274;1016501;-59
2022/01/13 11:00:24;;;;;;;31.70;9.70;;;;;;;3.35;84.39;101931.53;52766;1274;1016629;-60
2022/01/13 11:03:07;;;;;;;34.60;13.00;;;;;;;3.37;84.40;101926.09;52903;1274;1016526;-61
2022/01/13 11:05:41;;;;;;;37.00;11.00;;;;;;;3.38;84.36;101918.45;52897;1274;1017145;-62
2022/01/13 11:08:12;;;;;;;27.30;9.40;;;;;;;3.39;84.35;101914.12;53044;1274;1020176;-59
2022/01/13 11:10:51;;;;;;;26.80;8.70;;;;;;;3.40;84.34;101909.46;52960;1274;1016264;-60
2022/01/13 11:13:27;;;;;;;31.40;10.60;;;;;;;3.40;84.29;101904.34;53013;1274;1015926;-58
2022/01/13 11:15:58;;;;;;;25.70;9.60;;;;;;;3.41;84.29;101898.42;53016;1275;1016328;-60
2022/01/13 11:18:31;;;;;;;29.40;10.50;;;;;;;3.43;84.36;101899.77;53061;1274;1016185;-58
2022/01/13 11:21:03;;;;;;;26.40;9.40;;;;;;;3.45;84.30;101894.10;53038;1274;1016558;-59
2022/01/13 11:23:35;;;;;;;31.50;11.70;;;;;;;3.46;84.32;101889.52;53045;1274;1016297;-58
2022/01/13 11:26:09;;;;;;;25.10;7.40;;;;;;;3.49;84.30;101889.20;52999;1274;1016256;-60
2022/01/13 11:28:43;;;;;;;28.20;8.50;;;;;;;3.51;84.27;101893.71;52958;1274;1016605;-60
2022/01/13 11:31:14;;;;;;;22.60;7.20;;;;;;;3.54;84.27;101883.63;53047;1274;1016491;-59
2022/01/13 11:33:45;;;;;;;22.00;7.00;;;;;;;3.56;84.31;101883.95;52945;1274;1016684;-60
2022/01/13 11:36:17;;;;;;;23.60;7.90;;;;;;;3.58;84.26;101880.08;52993;1274;1016389;-60
2022/01/13 11:38:58;;;;;;;23.80;7.40;;;;;;;3.61;84.27;101873.21;53062;1274;1016538;-61
2022/01/13 11:41:29;;;;;;;25.70;8.30;;;;;;;3.64;84.15;101860.76;52969;1274;1016466;-56
2022/01/13 11:47:23;;;;;;;20.70;6.50;;;;;;;3.72;84.13;101867.70;103274;1310;547826;-55
2022/01/13 11:49:58;;;;;;;26.60;7.80;;;;;;;3.73;84.00;101865.34;106177;1280;26663;-57